Time;durP1;ratioP1;P1;durP2;ratioP2;P2;SDS_P1;SDS_P2;PMS_P1;PMS_P2;Temp;Humidity;BMP_temperature;BMP_pressure;BME280_temperature;BME280_humidity;BME280_pressure;Samples;Min_cycle;Max_cycle;Signal;HPM_P1;HPM_P2
2022/05/13 00:03:46;;;;;;;11.98;5.10;;;;;;;21.77;51.89;99867.91;7710384;32;36867;-73
2022/05/13 00:08:03;;;;;;;7.10;4.90;;;;;;;21.59;52.25;99861.75;7712705;32;39489;-74
2022/05/13 00:12:19;;;;;;;9.18;5.50;;;;;;;21.87;50.63;99861.91;7736929;32;39868;-74
2022/05/13 00:16:36;;;;;;;10.63;5.00;;;;;;;21.88;50.45;99865.47;7736833;32;38606;-73
2022/05/13 00:20:53;;;;;;;10.55;5.00;;;;;;;21.92;49.70;99863.63;7736865;32;37737;-73
2022/05/13 00:25:10;;;;;;;8.00;4.62;;;;;;;21.88;49.99;99871.03;7736558;32;40160;-72
2022/05/13 00:29:27;;;;;;;9.30;4.75;;;;;;;22.13;49.02;99875.44;7710499;32;41123;-73
2022/05/13 00:33:43;;;;;;;7.45;4.60;;;;;;;22.03;49.31;99895.31;7709566;32;38089;-74
2022/05/13 00:37:59;;;;;;;7.43;4.60;;;;;;;21.76;50.54;99905.91;7709647;32;37292;-73
2022/05/13 00:42:17;;;;;;;7.78;4.72;;;;;;;21.82;50.23;99908.47;7709448;32;39332;-74
2022/05/13 00:46:34;;;;;;;7.53;4.68;;;;;;;21.71;50.56;99900.63;7718438;32;39932;-73
2022/05/13 00:50:50;;;;;;;7.45;3.97;;;;;;;21.98;49.83;99878.91;7735456;32;38746;-73
2022/05/13 00:55:09;;;;;;;6.97;4.20;;;;;;;21.82;50.36;99876.00;7734775;32;38071;-73
2022/05/13 00:59:27;;;;;;;7.22;4.70;;;;;;;21.85;49.01;99882.81;7734742;32;40004;-74
2022/05/13 01:03:44;;;;;;;6.87;4.28;;;;;;;21.84;49.29;99864.56;7736551;32;39308;-73
2022/05/13 01:08:00;;;;;;;9.90;4.35;;;;;;;21.93;48.71;99870.81;7729449;32;37963;-73
2022/05/13 01:12:20;;;;;;;6.37;4.05;;;;;;;22.12;47.73;99879.34;7711447;32;36846;-73
2022/05/13 01:21:18;;;;;;;5.62;3.60;;;;;;;21.87;48.29;99861.06;7712637;32;40755;-75
2022/05/13 01:25:37;;;;;;;6.03;3.53;;;;;;;21.90;48.94;99865.94;7712484;32;37852;-73
2022/05/13 01:29:54;;;;;;;8.73;4.25;;;;;;;22.20;48.66;99883.19;7711913;32;37212;-74
2022/05/13 01:34:12;;;;;;;9.07;4.72;;;;;;;21.87;50.18;99884.09;7714290;32;39278;-73
2022/05/13 01:38:35;;;;;;;8.68;5.07;;;;;;;20.59;55.29;99898.50;7712350;32;40731;-73
2022/05/13 01:42:51;;;;;;;12.63;4.55;;;;;;;20.89;53.65;99917.06;7712274;32;37981;-73
2022/05/13 01:47:08;;;;;;;11.38;4.87;;;;;;;20.63;55.04;99929.12;7712312;32;37219;-73
2022/05/13 01:51:24;;;;;;;5.82;3.95;;;;;;;20.80;54.48;99917.13;7712947;32;40126;-73
2022/05/13 01:55:42;;;;;;;7.32;3.97;;;;;;;20.81;53.85;99924.25;7712135;32;39975;-73
2022/05/13 01:59:59;;;;;;;7.90;4.12;;;;;;;20.67;54.15;99920.97;7712146;32;37801;-74
2022/05/13 02:04:15;;;;;;;7.00;3.10;;;;;;;20.80;53.23;99911.56;7711994;32;37738;-74
2022/05/13 02:08:32;;;;;;;8.55;3.47;;;;;;;20.90;52.86;99911.16;7712346;32;39041;-73
2022/05/13 02:12:49;;;;;;;8.13;3.20;;;;;;;20.36;53.97;99922.09;7711758;32;40186;-72
2022/05/13 02:17:05;;;;;;;3.25;2.67;;;;;;;20.88;51.81;99898.78;7730379;32;37747;-73
2022/05/13 02:21:21;;;;;;;6.97;2.95;;;;;;;21.21;50.32;99901.59;7738702;32;38047;-73
2022/05/13 02:25:37;;;;;;;4.40;2.40;;;;;;;21.10;50.72;99875.47;7738577;32;40057;-73
2022/05/13 02:29:53;;;;;;;3.62;2.42;;;;;;;21.29;50.64;99855.53;7738536;32;40016;-72
2022/05/13 02:34:09;;;;;;;5.47;2.70;;;;;;;21.22;51.24;99881.03;7738540;32;37994;-73
2022/05/13 02:38:26;;;;;;;7.05;2.58;;;;;;;20.89;52.11;99872.72;7729859;32;37859;-73
2022/05/13 02:42:42;;;;;;;3.22;2.47;;;;;;;21.27;51.94;99889.16;7711671;32;40006;-74
2022/05/13 02:46:58;;;;;;;3.75;2.40;;;;;;;21.04;52.29;99896.19;7721028;32;39915;-73
2022/05/13 02:51:15;;;;;;;4.85;2.78;;;;;;;20.82;53.58;99867.72;7738242;32;37925;-73
2022/05/13 02:55:31;;;;;;;6.45;2.47;;;;;;;21.02;53.57;99782.91;7716495;32;37932;-75
2022/05/13 02:59:47;;;;;;;3.60;2.50;;;;;;;20.94;54.52;99839.25;7710341;32;39433;-73
2022/05/13 03:04:04;;;;;;;5.20;2.37;;;;;;;20.95;53.44;99905.41;7721880;32;40707;-73
2022/05/13 03:08:20;;;;;;;3.33;2.75;;;;;;;20.70;52.55;99903.66;7738105;32;37932;-72
2022/05/13 03:12:36;;;;;;;4.82;2.60;;;;;;;20.26;53.88;99906.66;7736874;32;38601;-73
2022/05/13 03:16:52;;;;;;;6.53;2.80;;;;;;;20.55;53.73;99902.25;7736921;32;39337;-74
2022/05/13 03:21:09;;;;;;;3.33;2.50;;;;;;;20.83;55.30;99891.47;7734015;32;39875;-73
2022/05/13 03:25:25;;;;;;;3.22;2.75;;;;;;;21.01;55.60;99917.91;7710154;32;37943;-75
2022/05/13 03:29:41;;;;;;;7.07;2.75;;;;;;;20.66;55.50;99958.09;7710913;32;37775;-74
2022/05/13 03:33:58;;;;;;;4.10;2.53;;;;;;;20.56;56.26;99985.00;7711080;32;40120;-72
2022/05/13 03:38:14;;;;;;;5.75;3.05;;;;;;;20.25;58.42;99936.31;7710852;32;40151;-74
2022/05/13 03:42:30;;;;;;;5.18;2.87;;;;;;;20.03;58.59;99939.34;7710571;32;37975;-73
2022/05/13 03:46:46;;;;;;;7.35;3.10;;;;;;;19.50;61.12;99933.91;7712687;32;38013;-72
2022/05/13 03:51:02;;;;;;;7.70;3.45;;;;;;;19.00;63.58;99962.09;7710816;32;39968;-74
2022/05/13 03:55:19;;;;;;;8.50;3.78;;;;;;;18.91;64.91;99980.63;7710588;32;40660;-71
2022/05/13 03:59:37;;;;;;;4.78;3.00;;;;;;;18.20;67.86;100020.16;7710442;32;37900;-70
2022/05/13 04:03:53;;;;;;;11.98;3.78;;;;;;;18.32;67.63;100031.41;7711556;32;36972;-72
2022/05/13 04:17:18;;;;;;;6.40;3.83;;;;;;;18.83;67.68;100007.06;7733088;32;37956;-71
2022/05/13 04:21:36;;;;;;;8.30;3.97;;;;;;;18.73;68.47;99997.12;7736764;32;37797;-71
2022/05/13 04:25:52;;;;;;;8.43;3.60;;;;;;;19.11;67.43;99960.63;7736624;32;38247;-72
2022/05/13 04:30:09;;;;;;;8.48;3.92;;;;;;;19.11;67.31;99960.63;7728382;32;40836;-72
2022/05/13 04:34:26;;;;;;;7.12;3.75;;;;;;;19.25;65.25;99970.72;7709671;32;38053;-71
2022/05/13 04:38:42;;;;;;;6.70;3.72;;;;;;;18.93;67.78;99970.84;7712175;32;37873;-71
2022/05/13 04:43:00;;;;;;;8.25;4.15;;;;;;;19.40;66.77;99967.44;7712942;32;39300;-84
2022/05/13 04:51:51;;;;;;;5.37;3.80;;;;;;;19.42;65.38;99984.53;7713157;32;37920;-75
2022/05/13 04:56:08;;;;;;;6.78;3.92;;;;;;;18.97;66.57;100003.37;7712817;32;37795;-74
2022/05/13 05:00:24;;;;;;;6.68;3.72;;;;;;;19.08;66.70;100001.91;7720893;32;39360;-74
2022/05/13 05:04:40;;;;;;;6.35;3.90;;;;;;;19.16;66.57;100019.63;7713502;32;40011;-74
2022/05/13 05:08:57;;;;;;;6.82;4.15;;;;;;;19.46;65.91;100013.13;7717715;32;38099;-74
2022/05/13 05:13:21;;;;;;;8.95;3.87;;;;;;;19.41;66.78;100016.06;7739481;32;38108;-75
2022/05/13 05:17:37;;;;;;;5.03;3.35;;;;;;;19.20;66.76;100015.09;7739467;32;39272;-75
2022/05/13 05:21:53;;;;;;;6.00;3.42;;;;;;;19.39;65.74;100017.53;7728168;32;40683;-74
2022/05/13 05:26:11;;;;;;;10.10;4.32;;;;;;;19.14;64.65;100011.66;7713708;32;37891;-75
2022/05/13 05:30:27;;;;;;;6.43;3.65;;;;;;;19.42;64.43;100003.03;7724166;32;37834;-75
2022/05/13 05:34:43;;;;;;;8.18;3.85;;;;;;;19.23;65.26;100011.66;7731233;32;37728;-75
2022/05/13 05:38:59;;;;;;;4.30;2.95;;;;;;;18.98;66.08;100011.31;7737281;32;39973;-74
2022/05/13 05:43:16;;;;;;;5.68;3.70;;;;;;;19.16;65.96;100003.06;7724308;32;38436;-75
2022/05/13 05:47:32;;;;;;;4.47;3.05;;;;;;;18.98;65.76;100008.56;7721464;32;36962;-75
2022/05/13 05:51:49;;;;;;;6.50;3.20;;;;;;;19.16;65.00;100005.81;7730059;32;39132;-75
2022/05/13 06:00:46;;;;;;;7.60;3.62;;;;;;;18.89;65.26;100011.31;7736983;32;39101;-74
2022/05/13 06:05:02;;;;;;;9.38;3.83;;;;;;;18.88;65.25;100003.34;7724893;32;37035;-75
2022/05/13 06:09:19;;;;;;;6.65;3.37;;;;;;;19.28;64.41;100012.34;7720265;32;39102;-77
2022/05/13 06:13:35;;;;;;;7.37;3.85;;;;;;;19.45;63.79;100005.97;7728722;32;39955;-81
2022/05/13 06:17:54;;;;;;;5.93;3.33;;;;;;;19.75;63.55;100025.50;7734803;32;37934;-71
2022/05/13 06:22:10;;;;;;;5.43;2.80;;;;;;;20.01;62.76;100021.88;7722175;32;36737;-72
2022/05/13 06:26:27;;;;;;;7.87;3.35;;;;;;;20.19;62.45;100019.87;7710591;32;39399;-70
2022/05/13 06:30:44;;;;;;;6.43;3.50;;;;;;;20.32;60.52;100023.56;7710234;32;40811;-70
2022/05/13 06:35:00;;;;;;;5.75;3.40;;;;;;;20.37;59.81;100024.19;7711343;32;38123;-70
2022/05/13 06:39:16;;;;;;;5.65;3.00;;;;;;;20.35;60.87;100009.87;7708436;32;38025;-70
2022/05/13 06:43:32;;;;;;;6.37;3.62;;;;;;;20.49;59.43;100006.87;7709753;32;40099;-70
2022/05/13 06:47:48;;;;;;;5.87;2.97;;;;;;;20.56;61.28;100009.94;7709011;32;39998;-71
2022/05/13 06:52:05;;;;;;;5.10;2.95;;;;;;;21.06;59.09;100010.31;7708023;32;38673;-70
2022/05/13 06:56:41;;;;;;;4.12;2.53;;;;;;;20.46;60.18;100015.84;7708794;32;37221;-74
2022/05/13 07:00:57;;;;;;;4.55;2.55;;;;;;;20.57;58.35;100022.63;7709934;32;39266;-78
2022/05/13 07:05:16;;;;;;;7.22;3.05;;;;;;;21.09;57.70;100020.72;7711289;32;39598;-82
2022/05/13 07:09:34;;;;;;;6.95;2.78;;;;;;;21.06;58.39;100015.84;7711394;32;37922;-81
2022/05/13 07:13:50;;;;;;;4.80;2.75;;;;;;;21.08;55.57;100008.03;7711197;32;37071;-82
2022/05/13 07:18:06;;;;;;;5.30;2.92;;;;;;;21.47;55.53;100012.31;7711261;32;39126;-81
2022/05/13 07:22:23;;;;;;;4.60;2.65;;;;;;;20.87;56.31;100008.81;7711272;32;40810;-82
2022/05/13 07:26:39;;;;;;;5.30;2.50;;;;;;;21.37;57.67;100015.47;7711001;32;38831;-82
2022/05/13 07:30:55;;;;;;;10.73;3.08;;;;;;;20.82;58.17;100018.12;7711050;32;37126;-83
2022/05/13 07:35:11;;;;;;;5.07;2.67;;;;;;;21.26;57.93;100009.50;7710966;32;39351;-83
2022/05/13 07:44:02;;;;;;;3.95;2.50;;;;;;;21.43;57.11;100016.87;7710655;32;38102;-74
2022/05/13 07:48:18;;;;;;;4.78;2.47;;;;;;;21.14;55.61;100017.75;7710724;32;37823;-74
2022/05/13 07:52:34;;;;;;;7.53;2.97;;;;;;;21.37;56.29;100024.59;7710703;32;39115;-74
2022/05/13 07:56:50;;;;;;;4.70;2.55;;;;;;;21.29;56.36;100031.00;7710363;32;39705;-74
2022/05/13 08:01:07;;;;;;;6.65;2.78;;;;;;;21.45;55.44;100035.94;7710121;32;38666;-75
2022/05/13 08:05:23;;;;;;;6.15;2.90;;;;;;;21.54;56.89;100031.16;7710277;32;37832;-74
2022/05/13 08:09:39;;;;;;;5.32;2.62;;;;;;;22.03;56.60;100036.87;7710226;32;40124;-75
2022/05/13 08:13:56;;;;;;;32.90;14.45;;;;;;;21.99;54.00;100046.22;7715094;32;40983;-74
2022/05/13 08:18:13;;;;;;;6.68;2.87;;;;;;;21.33;54.34;100034.72;7718686;32;37784;-74
2022/05/13 08:22:29;;;;;;;11.07;3.75;;;;;;;21.71;55.34;100039.34;7718761;32;37143;-75
2022/05/13 08:26:45;;;;;;;4.55;2.80;;;;;;;21.45;56.86;100035.94;7718668;32;39332;-75
2022/05/13 08:31:02;;;;;;;5.03;3.05;;;;;;;21.53;54.75;100046.19;7718535;32;40010;-74
2022/05/13 08:35:18;;;;;;;4.18;2.80;;;;;;;21.43;58.06;100050.16;7718331;32;38288;-73
2022/05/13 08:39:34;;;;;;;5.72;2.40;;;;;;;22.02;55.00;100029.69;7710556;32;252991;-74
2022/05/13 08:44:07;;;;;;;7.20;2.65;;;;;;;22.80;54.44;100025.19;7718124;32;39498;-76
2022/05/13 08:48:31;;;;;;;4.03;2.30;;;;;;;22.67;53.42;100018.81;7718149;32;39890;-74
2022/05/13 08:53:22;;;;;;;2.92;1.87;;;;;;;22.84;53.40;100017.75;7716806;32;38038;-74
2022/05/13 08:57:42;;;;;;;6.60;2.62;;;;;;;23.12;52.28;100025.38;7718051;32;37219;-74
2022/05/13 09:02:08;;;;;;;2.80;2.28;;;;;;;23.32;51.25;100023.63;7716790;32;40085;-76
2022/05/13 09:06:48;;;;;;;3.53;2.42;;;;;;;22.81;51.17;100026.78;7716675;32;39962;-82
2022/05/13 09:11:28;;;;;;;7.18;2.72;;;;;;;22.69;53.62;100022.03;7717609;32;39198;-74
2022/05/13 09:15:50;;;;;;;5.15;2.78;;;;;;;22.25;54.18;100023.72;7717424;32;37215;-74
2022/05/13 09:20:11;;;;;;;5.53;2.95;;;;;;;22.38;54.40;100025.41;7717600;32;40027;-74
2022/05/13 09:24:27;;;;;;;4.75;2.60;;;;;;;22.65;54.71;100028.66;7714434;32;40810;-74
2022/05/13 09:29:11;;;;;;;4.68;2.80;;;;;;;21.88;55.10;100051.41;7712217;32;38207;-73
2022/05/13 09:33:32;;;;;;;10.57;2.85;;;;;;;22.05;57.07;100050.44;7711625;32;38186;-74
2022/05/13 09:37:48;;;;;;;2.55;2.15;;;;;;;22.33;56.40;100045.06;7712368;32;40057;-75
2022/05/13 09:42:24;;;;;;;3.72;2.05;;;;;;;22.23;55.82;100045.47;7712262;32;40730;-74
2022/05/13 09:46:50;;;;;;;9.82;5.30;;;;;;;22.76;52.50;100045.69;7712200;32;38097;-74
2022/05/13 09:51:43;;;;;;;4.40;2.95;;;;;;;22.68;52.44;100055.78;7712226;32;37919;-75
2022/05/13 09:56:02;;;;;;;3.12;2.22;;;;;;;22.87;51.14;100053.19;7712253;32;40066;-74
2022/05/13 10:00:24;;;;;;;6.55;3.05;;;;;;;22.93;52.00;100039.06;7712195;32;39007;-74
2022/05/13 10:04:40;;;;;;;4.68;3.25;;;;;;;22.90;50.50;100045.31;7710699;32;37999;-74
2022/05/13 10:18:19;;;;;;;4.53;2.60;;;;;;;24.25;48.30;100030.97;7711957;32;39907;-74
2022/05/13 10:22:51;;;;;;;5.75;2.33;;;;;;;24.28;48.43;100027.44;7710719;32;38551;-75
2022/05/13 10:27:11;;;;;;;5.65;2.67;;;;;;;23.91;48.02;100033.25;7711378;32;37014;-74
2022/05/13 10:31:30;;;;;;;3.75;2.10;;;;;;;24.13;50.02;100017.13;7709550;32;40083;-75
2022/05/13 10:35:52;;;;;;;5.65;2.20;;;;;;;24.57;48.17;100016.25;7710971;32;39875;-75
2022/05/13 10:40:12;;;;;;;4.25;2.60;;;;;;;24.08;47.21;100014.59;7711672;32;38745;-74
2022/05/13 10:44:40;;;;;;;6.78;2.53;;;;;;;24.52;48.07;100018.09;7710565;32;37876;-75
2022/05/13 10:48:57;;;;;;;4.70;2.10;;;;;;;25.07;46.08;100011.81;7710488;32;39556;-75
2022/05/13 10:53:17;;;;;;;5.82;2.05;;;;;;;25.36;44.12;100021.66;7711317;32;40904;-74
2022/05/13 10:57:40;;;;;;;5.53;2.10;;;;;;;25.04;44.17;100021.75;7711382;32;38725;-74
2022/05/13 11:02:29;;;;;;;4.68;2.00;;;;;;;24.85;43.56;100007.72;7711664;32;37940;-75
2022/05/13 11:07:06;;;;;;;3.47;2.05;;;;;;;24.69;46.47;100005.78;7709315;32;39876;-76
2022/05/13 11:11:28;;;;;;;4.78;2.17;;;;;;;24.66;41.92;99994.56;7710853;32;39908;-75
2022/05/13 11:15:52;;;;;;;3.65;2.00;;;;;;;24.32;44.60;99994.13;7711095;32;38127;-75
2022/05/13 11:20:18;;;;;;;6.65;2.08;;;;;;;24.04;43.77;100005.31;7711330;32;37026;-75
2022/05/13 11:29:58;;;;;;;4.32;2.35;;;;;;;23.57;45.98;100012.38;7711081;32;40820;-75
2022/05/13 11:34:47;;;;;;;4.50;2.00;;;;;;;23.19;46.35;100022.81;7710979;32;38105;-75
2022/05/13 11:39:13;;;;;;;4.95;2.20;;;;;;;22.78;45.92;100021.13;7711032;32;37689;-75
2022/05/13 11:44:00;;;;;;;2.47;1.60;;;;;;;22.62;47.01;100032.12;7709858;32;39952;-74
2022/05/13 11:48:21;;;;;;;3.42;2.35;;;;;;;22.42;47.91;100023.56;7709518;32;40011;-75
2022/05/13 11:52:46;;;;;;;3.87;2.30;;;;;;;22.34;49.10;100023.69;7710842;32;38080;-75
2022/05/13 11:57:21;;;;;;;4.82;2.60;;;;;;;21.76;51.25;100033.56;7710877;32;37053;-75
2022/05/13 12:01:43;;;;;;;12.52;2.83;;;;;;;21.61;52.35;100042.53;7710663;32;40097;-74
2022/05/13 12:06:03;;;;;;;5.93;2.70;;;;;;;21.61;52.73;100027.84;7710395;32;40559;-75
2022/05/13 12:10:45;;;;;;;6.12;2.47;;;;;;;21.58;52.16;100015.47;7709235;32;37971;-74
2022/05/13 12:15:33;;;;;;;4.50;2.28;;;;;;;21.32;51.02;99999.84;7655944;32;36902;-74
2022/05/13 12:19:58;;;;;;;3.35;2.30;;;;;;;21.78;49.94;100013.00;7663874;32;39395;-74
2022/05/13 12:24:18;;;;;;;4.12;2.25;;;;;;;21.14;50.53;100009.44;7656878;32;39856;-75
2022/05/13 12:28:55;;;;;;;4.60;2.03;;;;;;;21.23;51.56;99999.09;7657292;32;36060;-75
2022/05/13 12:33:20;;;;;;;4.07;2.05;;;;;;;21.10;50.77;99989.09;7657064;32;37295;-75
2022/05/13 12:38:01;;;;;;;6.10;2.37;;;;;;;20.91;53.60;99981.25;7656823;32;39307;-75
2022/05/13 12:42:26;;;;;;;3.67;2.28;;;;;;;20.81;55.13;99993.53;7656656;32;39920;-75
2022/05/13 12:46:47;;;;;;;4.50;2.70;;;;;;;20.96;55.11;99981.03;7656415;32;37966;-74
2022/05/13 12:51:17;;;;;;;4.35;2.45;;;;;;;20.31;59.91;99975.69;7656633;32;37121;-74
2022/05/13 12:55:37;;;;;;;5.05;2.55;;;;;;;20.69;59.08;99976.81;7656392;32;39143;-74
2022/05/13 12:59:54;;;;;;;4.07;2.72;;;;;;;20.73;59.45;99975.81;7669131;32;39860;-74
2022/05/13 13:04:12;;;;;;;7.32;3.10;;;;;;;20.43;60.23;99966.66;7659810;32;38677;-74
2022/05/13 13:08:37;;;;;;;6.43;3.10;;;;;;;20.57;58.81;99967.22;7659839;32;36795;-74
2022/05/13 13:13:17;;;;;;;3.37;2.55;;;;;;;20.77;59.06;99942.72;7684425;32;39364;-74
2022/05/13 13:17:48;;;;;;;6.82;2.80;;;;;;;20.29;59.03;99943.97;7712776;32;40428;-75
2022/05/13 13:22:14;;;;;;;4.12;2.30;;;;;;;20.72;59.83;99949.25;7712688;32;38495;-75
2022/05/13 13:26:30;;;;;;;4.68;2.30;;;;;;;21.13;56.09;99938.53;7712622;32;37057;-74
2022/05/13 13:30:56;;;;;;;4.72;2.50;;;;;;;21.09;58.61;99932.03;7711454;32;40001;-74
2022/05/13 13:35:12;;;;;;;5.07;2.03;;;;;;;21.09;56.69;99927.28;7712637;32;40775;-74
2022/05/13 13:39:30;;;;;;;3.80;2.37;;;;;;;21.04;56.60;99905.34;7710793;32;37965;-73
2022/05/13 13:43:54;;;;;;;14.85;10.07;;;;;;;21.29;57.69;99914.56;7712264;32;37034;-74
2022/05/13 13:48:16;;;;;;;3.78;1.92;;;;;;;21.52;58.37;99903.09;7712357;32;40055;-73
2022/05/13 13:52:36;;;;;;;3.92;2.10;;;;;;;21.38;55.85;99895.06;7712332;32;41230;-73
2022/05/13 13:57:13;;;;;;;4.47;2.10;;;;;;;22.06;56.21;99879.91;7712070;32;38700;-74
2022/05/13 14:01:29;;;;;;;3.95;2.20;;;;;;;22.18;56.48;99879.13;7711138;32;37802;-74
2022/05/13 14:05:51;;;;;;;1.75;1.42;;;;;;;22.21;54.87;99875.66;7710888;32;40129;-74
2022/05/13 14:10:09;;;;;;;4.32;1.87;;;;;;;22.32;49.12;99876.84;7711490;32;40586;-74
2022/05/13 14:14:25;;;;;;;3.60;1.80;;;;;;;22.58;51.04;99859.78;7711732;32;38015;-74
2022/05/13 14:18:42;;;;;;;4.00;1.70;;;;;;;23.22;50.33;99843.34;7710875;32;37746;-75
2022/05/13 14:23:17;;;;;;;2.55;1.50;;;;;;;24.02;46.01;99823.91;7711830;32;39413;-75
2022/05/13 14:27:34;;;;;;;3.22;1.50;;;;;;;25.25;47.48;99823.34;7711671;32;40924;-75
2022/05/13 14:31:55;;;;;;;6.05;1.87;;;;;;;25.03;42.79;99824.09;7710408;32;37796;-76
2022/05/13 14:36:11;;;;;;;3.12;1.60;;;;;;;25.36;43.14;99815.16;7711684;32;37043;-75
2022/05/13 14:40:42;;;;;;;6.03;1.83;;;;;;;25.76;41.83;99805.47;7710417;32;39478;-74
2022/05/13 14:44:59;;;;;;;2.08;1.62;;;;;;;25.61;41.66;99814.78;7711477;32;40151;-75
2022/05/13 14:49:36;;;;;;;2.65;1.70;;;;;;;25.48;43.63;99825.34;7711465;32;38668;-75
2022/05/13 14:54:03;;;;;;;3.90;1.67;;;;;;;25.91;41.11;99816.88;7711368;32;37092;-75
2022/05/13 14:58:28;;;;;;;3.28;1.50;;;;;;;25.59;42.10;99823.53;7710136;32;38229;-76
2022/05/13 15:02:53;;;;;;;2.62;1.62;;;;;;;25.80;40.87;99828.69;7711342;32;40739;-76
2022/05/13 15:07:19;;;;;;;3.08;1.33;;;;;;;26.07;40.11;99825.91;7711147;32;37907;-76
2022/05/13 15:11:35;;;;;;;2.42;1.40;;;;;;;26.18;40.14;99821.31;7711281;32;37844;-76
2022/05/13 15:15:53;;;;;;;3.80;1.70;;;;;;;26.32;40.49;99819.88;7711073;32;39366;-76
2022/05/13 15:20:09;;;;;;;2.47;1.80;;;;;;;25.74;41.05;99824.59;7710991;32;39876;-76
2022/05/13 15:24:27;;;;;;;3.58;1.83;;;;;;;25.35;42.18;99824.69;7709454;32;38758;-75
2022/05/13 15:28:45;;;;;;;2.75;1.55;;;;;;;25.54;42.54;99814.66;7710808;32;37221;-75
2022/05/13 15:33:01;;;;;;;2.47;1.75;;;;;;;25.64;42.07;99819.63;7710964;32;38243;-75
2022/05/13 15:37:20;;;;;;;2.22;1.67;;;;;;;25.35;42.72;99821.91;7710902;32;39889;-76
2022/05/13 15:41:36;;;;;;;2.70;1.73;;;;;;;24.68;44.17;99819.41;7709670;32;38748;-75
2022/05/13 15:45:53;;;;;;;2.33;1.92;;;;;;;24.44;45.88;99812.91;7710705;32;37661;-75
2022/05/13 15:54:49;;;;;;;5.78;1.90;;;;;;;25.11;44.48;99792.34;7709743;32;39872;-82
2022/05/13 15:59:05;;;;;;;6.70;2.12;;;;;;;24.11;47.02;99791.91;7709664;32;38518;-82
2022/05/13 16:03:26;;;;;;;3.92;2.20;;;;;;;24.41;46.29;99782.19;7709448;32;37099;-82
2022/05/13 16:07:42;;;;;;;3.05;1.80;;;;;;;23.97;46.69;99772.91;7710148;32;40141;-83
2022/05/13 16:12:01;;;;;;;6.82;2.20;;;;;;;24.14;47.49;99762.50;7710255;32;40791;-80
2022/05/13 16:16:29;;;;;;;2.80;2.17;;;;;;;24.11;47.86;99757.66;7708778;32;37959;-79
2022/05/13 16:20:47;;;;;;;3.15;2.20;;;;;;;24.47;46.25;99750.88;7710122;32;37101;-79
2022/05/13 16:25:05;;;;;;;6.25;2.15;;;;;;;24.40;47.43;99749.94;7709968;32;39871;-79
2022/05/13 16:29:21;;;;;;;4.40;2.30;;;;;;;24.59;45.71;99749.94;7709446;32;40642;-78
2022/05/13 16:33:40;;;;;;;3.28;2.28;;;;;;;24.76;45.77;99761.84;7710266;32;38749;-80
2022/05/13 16:37:56;;;;;;;3.87;1.98;;;;;;;24.61;45.66;99746.78;7713302;32;37067;-80
2022/05/13 16:42:12;;;;;;;4.37;2.15;;;;;;;24.85;46.34;99740.91;7712003;32;40080;-81
2022/05/13 16:46:28;;;;;;;3.50;2.30;;;;;;;24.40;46.93;99747.94;7712780;32;41215;-81
2022/05/13 16:50:45;;;;;;;6.35;2.42;;;;;;;24.58;46.64;99741.94;7712847;32;36950;-79
2022/05/13 16:55:01;;;;;;;4.97;2.15;;;;;;;24.99;47.38;99745.12;7712964;32;37095;-81
2022/05/13 16:59:17;;;;;;;4.50;2.22;;;;;;;24.71;45.98;99747.00;7712961;32;39123;-80
2022/05/13 17:03:33;;;;;;;4.70;2.45;;;;;;;24.93;45.50;99737.06;7712979;32;39686;-80
2022/05/13 17:07:49;;;;;;;5.57;2.28;;;;;;;24.43;47.20;99740.84;7712569;32;37702;-80
2022/05/13 17:16:40;;;;;;;5.72;3.42;;;;;;;24.80;47.14;99732.03;7712616;32;39357;-81
2022/05/13 17:20:57;;;;;;;4.28;2.45;;;;;;;24.43;47.77;99730.50;7711456;32;41451;-81
2022/05/13 17:25:13;;;;;;;4.40;2.70;;;;;;;24.58;47.25;99731.63;7712531;32;37941;-71
2022/05/13 17:29:29;;;;;;;5.60;2.60;;;;;;;24.45;47.73;99732.91;7712403;32;37169;-73
2022/05/13 17:33:45;;;;;;;6.82;2.80;;;;;;;24.25;48.25;99723.75;7712344;32;40177;-74
2022/05/13 17:38:03;;;;;;;5.93;3.10;;;;;;;24.29;48.27;99736.59;7712207;32;39954;-72
2022/05/13 17:42:19;;;;;;;6.45;3.67;;;;;;;24.16;48.23;99740.66;7712286;32;39551;-73
2022/05/13 17:46:37;;;;;;;6.32;3.60;;;;;;;24.08;49.09;99752.84;7711312;32;37147;-72
2022/05/13 17:50:54;;;;;;;4.57;3.20;;;;;;;24.04;48.56;99749.97;7712249;32;39335;-72
2022/05/13 17:55:11;;;;;;;5.47;3.53;;;;;;;23.81;49.74;99747.88;7713997;32;39958;-74
2022/05/13 17:59:27;;;;;;;5.22;3.10;;;;;;;23.39;51.16;99747.63;7716595;32;37921;-74
2022/05/13 18:03:43;;;;;;;6.53;3.15;;;;;;;23.29;51.72;99737.03;7712940;32;37243;-73
2022/05/13 18:07:59;;;;;;;4.57;2.67;;;;;;;23.28;51.17;99738.19;7712028;32;39346;-73
2022/05/13 18:12:15;;;;;;;5.80;3.33;;;;;;;23.17;51.33;99741.50;7711981;32;40025;-72
2022/05/13 18:16:32;;;;;;;5.40;2.80;;;;;;;23.33;50.93;99743.50;7711733;32;37910;-71
2022/05/13 18:20:48;;;;;;;5.12;3.10;;;;;;;22.99;51.86;99743.81;7711936;32;38119;-72
2022/05/13 18:25:05;;;;;;;5.75;3.42;;;;;;;22.81;52.58;99742.53;7711917;32;39258;-72
2022/05/13 18:29:21;;;;;;;6.18;3.72;;;;;;;22.60;53.57;99748.31;7725093;32;39918;-70
2022/05/13 18:33:38;;;;;;;9.25;4.30;;;;;;;22.44;53.96;99757.37;7711597;32;37945;-73
2022/05/13 18:37:54;;;;;;;9.65;4.65;;;;;;;22.23;54.47;99762.25;7711781;32;37142;-71
2022/05/13 18:46:44;;;;;;;10.00;3.87;;;;;;;21.86;55.84;99759.56;7711443;32;39695;-77
2022/05/13 18:51:01;;;;;;;6.75;3.97;;;;;;;21.83;55.51;99761.06;7711326;32;37620;-78
2022/05/13 18:55:18;;;;;;;8.80;4.12;;;;;;;22.09;54.48;99768.19;7730801;32;37947;-79
2022/05/13 18:59:35;;;;;;;10.10;3.70;;;;;;;21.94;55.10;99772.53;7724102;32;39475;-76
2022/05/13 19:03:52;;;;;;;5.85;3.90;;;;;;;22.62;53.26;99780.09;7731490;32;40003;-74
2022/05/13 19:08:08;;;;;;;7.80;4.28;;;;;;;22.35;54.38;99778.91;7712772;32;38807;-73
2022/05/13 19:12:24;;;;;;;7.32;3.58;;;;;;;22.12;54.94;99784.97;7737736;32;36971;-74
2022/05/13 19:16:43;;;;;;;10.65;3.97;;;;;;;22.15;54.78;99783.47;7737887;32;39992;-75
2022/05/13 19:21:05;;;;;;;8.98;3.97;;;;;;;21.92;55.81;99789.50;7733788;32;40105;-74
2022/05/13 19:25:26;;;;;;;10.30;4.55;;;;;;;21.86;56.04;99795.66;7710991;32;36459;-73
2022/05/13 19:29:42;;;;;;;7.47;4.10;;;;;;;21.67;56.49;99802.56;7710949;32;37834;-73
2022/05/13 19:34:00;;;;;;;7.85;4.70;;;;;;;21.64;56.54;99810.78;7710953;32;39264;-73
2022/05/13 19:38:16;;;;;;;9.35;4.37;;;;;;;21.68;56.31;99812.53;7710824;32;40896;-72
2022/05/13 19:42:32;;;;;;;9.15;4.70;;;;;;;21.73;56.25;99803.97;7710677;32;37993;-73
2022/05/13 19:46:49;;;;;;;12.50;5.03;;;;;;;21.63;56.48;99811.94;7711281;32;37250;-73
2022/05/13 19:51:08;;;;;;;13.30;5.40;;;;;;;21.46;56.93;99810.16;7710657;32;40044;-72
2022/05/13 19:55:24;;;;;;;9.65;5.40;;;;;;;21.45;57.20;99809.34;7732449;32;38864;-72
2022/05/13 19:59:40;;;;;;;11.07;5.72;;;;;;;21.55;56.99;99808.13;7712972;32;38664;-71
2022/05/13 20:03:56;;;;;;;12.00;6.07;;;;;;;21.65;56.87;99810.44;7717395;32;37059;-74
2022/05/13 20:12:49;;;;;;;8.77;5.50;;;;;;;21.52;57.23;99815.16;7710047;32;40463;-73
2022/05/13 20:17:05;;;;;;;9.90;5.95;;;;;;;21.53;57.09;99819.56;7710162;32;38593;-72
2022/05/13 20:25:56;;;;;;;10.80;6.03;;;;;;;21.19;58.33;99820.72;7714489;32;39113;-73
2022/05/13 20:30:13;;;;;;;9.52;5.43;;;;;;;20.84;59.60;99826.63;7709638;32;39692;-73
2022/05/13 20:34:30;;;;;;;9.82;5.68;;;;;;;21.04;58.87;99824.97;7719330;32;37427;-71
2022/05/13 20:38:48;;;;;;;11.70;6.35;;;;;;;21.10;58.80;99831.09;7736289;32;37928;-72
2022/05/13 20:43:04;;;;;;;12.00;6.10;;;;;;;21.00;59.13;99824.81;7734932;32;40004;-72
2022/05/13 20:47:21;;;;;;;8.68;5.25;;;;;;;20.77;59.79;99827.16;7708999;32;40909;-74
2022/05/13 20:51:37;;;;;;;7.72;4.57;;;;;;;20.20;61.34;99834.09;7709134;32;37960;-74
2022/05/13 20:55:53;;;;;;;9.75;5.22;;;;;;;20.53;59.93;99833.37;7727619;32;37722;-73
2022/05/13 21:00:12;;;;;;;11.40;5.30;;;;;;;20.40;60.32;99838.03;7736119;32;40037;-75
2022/05/13 21:04:47;;;;;;;8.15;4.40;;;;;;;20.22;60.91;99840.09;7718389;32;39714;-75
2022/05/13 21:09:03;;;;;;;7.65;4.57;;;;;;;20.71;59.03;99842.38;7710154;32;37688;-75
2022/05/13 21:13:21;;;;;;;10.20;4.35;;;;;;;20.75;58.36;99836.97;7707313;32;37277;-74
2022/05/13 21:17:37;;;;;;;9.32;3.75;;;;;;;20.34;58.51;99835.78;7716974;32;39255;-75
2022/05/13 21:21:53;;;;;;;6.80;3.75;;;;;;;20.54;57.62;99831.41;7712811;32;39843;-74